Benson, AZ (85602)

1:50 AM MST on February 09, 2016 (GMT -0700)
Silverwood | | Change Station
CLOSE
Current Station
Personal Weather Station
Location: Benson, AZ
Elevation: 3655 ft
Nearby Weather Stations

Elev 3655 ft 31.96 °N, 110.29 °W | Updated 9 seconds ago

Clear
Clear
41.2 °F
Feels Like 41 °F
N
0.9
Wind Variable Wind from South
Gusts 1.0 mph

Today
High -- | Low -- °F
--% Chance of Precip.
Yesterday
High -- | Low -- °F
Precip. -- in
Pressure 30.12 in
Visibility 10.0 miles
Clouds Clear
Windchill 41 °F
Dew Point 20 °F
Humidity 43%
Rainfall 0.00 in
Snow Depth Not available.
7:09 AM 6:02 PM
New Moon, 1% visible
METAR KALK 090756Z AUTO 08004KT 10SM CLR 09/M09 A3031 RMK AO2 SLP197 T00891089
Pressure 30.12 in
Visibility 10.0 miles
Clouds Clear
Windchill 41 °F
Dew Point 20 °F
Humidity 43%
Rainfall 0.00 in
Snow Depth Not available.
7:09 AM 6:02 PM
New Moon, 1% visible
METAR KALK 090756Z AUTO 08004KT 10SM CLR 09/M09 A3031 RMK AO2 SLP197 T00891089

10-Day Weather Forecast

Almanac

Astronomy

Feb. 09, 2016 Rise Set
Actual Time
Civil Twilight
Nautical Twilight
Astronomical Twilight
Moon
Length of Visible Light
Length of Day
Tomorrow will be .
, % of the Moon is Illuminated

Today's Extremes

State Highs State Lows

Community

WunderPhotos

Upload Photos

1,891,571 photos uploaded!

WunderBlog® & News

Nearby

Air Quality

  Air Quality AQ Index Pollutant
Not available.

Snow Depth

Station Depth Elevation

Earthquake Activity

City Distance Mag. Time & Date
Minimum magnitude displayed is 2.5.

Coastal Water Temperatures

Place Temperature

Stations

Nearby Weather Stations

Station Location Temp. Windchill Dew Point Humidity Wind Precip. Elev Updated Type
                   

Watches & Warnings

There are currently no watches in effect.